createdAt,value
2019-03-22T00:01:45.477Z,2.3
2019-03-22T00:06:45.406Z,2.3
2019-03-22T00:11:45.441Z,2.2
2019-03-22T00:16:45.306Z,2.1
2019-03-22T00:21:45.302Z,2
2019-03-22T00:26:45.436Z,1.9
2019-03-22T00:31:45.316Z,1.9
2019-03-22T00:36:45.312Z,1.8
2019-03-22T00:41:45.577Z,1.8
2019-03-22T00:46:45.443Z,1.7
2019-03-22T00:51:45.329Z,1.6
2019-03-22T00:56:45.337Z,1.5
2019-03-22T01:01:45.321Z,1.5
2019-03-22T01:06:45.323Z,1.4
2019-03-22T01:11:45.557Z,1.4
2019-03-22T01:16:45.491Z,1.3
2019-03-22T01:21:45.315Z,1.2
2019-03-22T01:26:45.340Z,1.2
2019-03-22T01:31:45.475Z,1.1
2019-03-22T01:36:45.518Z,1.1
2019-03-22T01:41:45.527Z,1
2019-03-22T01:46:45.348Z,0.9
2019-03-22T01:51:45.332Z,0.9
2019-03-22T01:56:45.356Z,0.8
2019-03-22T02:01:45.359Z,0.8
2019-03-22T02:06:45.526Z,0.7
2019-03-22T02:11:45.365Z,0.7
2019-03-22T02:16:45.468Z,0.7
2019-03-22T02:21:45.511Z,0.7
2019-03-22T02:26:45.487Z,0.6
2019-03-22T02:31:45.373Z,0.6
2019-03-22T02:36:45.505Z,0.5
2019-03-22T02:41:45.564Z,0.5
2019-03-22T02:46:45.596Z,0.4
2019-03-22T02:51:45.505Z,0.4
2019-03-22T02:56:45.391Z,0.3
2019-03-22T03:01:45.393Z,0.3
2019-03-22T03:06:45.523Z,0.3
2019-03-22T03:11:45.560Z,0.2
2019-03-22T03:16:45.378Z,0.2
2019-03-22T03:21:45.382Z,0.1
2019-03-22T03:26:45.558Z,0.1
2019-03-22T03:31:45.408Z,0
2019-03-22T03:36:45.444Z,0
2019-03-22T03:41:45.550Z,0
2019-03-22T03:46:45.588Z,0
2019-03-22T03:51:45.423Z,-0.1
2019-03-22T03:56:45.548Z,-0.1
2019-03-22T04:01:45.368Z,-0.1
2019-03-22T04:06:45.533Z,-0.2
2019-03-22T04:11:45.554Z,-0.2
2019-03-22T04:16:45.553Z,-0.2
2019-03-22T04:21:45.424Z,-0.3
2019-03-22T04:26:45.665Z,-0.3
2019-03-22T04:31:45.454Z,-0.3
2019-03-22T04:36:45.422Z,-0.4
2019-03-22T04:41:45.453Z,-0.4
2019-03-22T04:46:45.589Z,-0.5
2019-03-22T04:51:45.439Z,-0.5
2019-03-22T04:56:45.451Z,-0.5
2019-03-22T05:01:45.600Z,-0.5
2019-03-22T05:06:45.582Z,-0.6
2019-03-22T05:11:45.676Z,-0.5
2019-03-22T05:16:45.589Z,-0.5
2019-03-22T05:21:45.631Z,-0.6
2019-03-22T05:26:45.458Z,-0.6
2019-03-22T05:31:45.708Z,-0.5
2019-03-22T05:36:45.622Z,-0.5
2019-03-22T05:41:45.484Z,-0.3
2019-03-22T05:46:45.461Z,-0.2
2019-03-22T05:51:45.471Z,-0.1
2019-03-22T05:56:45.473Z,0
2019-03-22T06:01:45.622Z,0.2
2019-03-22T06:06:45.503Z,0.4
2019-03-22T06:11:45.453Z,0.6
2019-03-22T06:16:45.510Z,0.8
2019-03-22T06:21:45.488Z,1.1
2019-03-22T06:26:45.478Z,1.4
2019-03-22T06:31:45.491Z,1.8
2019-03-22T06:36:45.493Z,2
2019-03-22T06:41:45.488Z,2.3
2019-03-22T06:46:45.501Z,2.6
2019-03-22T06:51:45.513Z,2.9
2019-03-22T06:56:45.535Z,3.2
2019-03-22T07:01:45.453Z,3.4
2019-03-22T07:06:45.516Z,3.8
2019-03-22T07:11:45.527Z,4.1
2019-03-22T07:16:45.515Z,4.3
2019-03-22T07:21:45.526Z,4.7
2019-03-22T07:26:45.513Z,4.9
2019-03-22T07:31:45.536Z,5.2
2019-03-22T07:36:46.940Z,5.5
2019-03-22T07:41:45.535Z,5.7
2019-03-22T07:46:45.541Z,6.1
2019-03-22T07:51:45.553Z,6.4
2019-03-22T07:56:45.554Z,6.8
2019-03-22T08:01:45.540Z,7.2
2019-03-22T08:06:45.551Z,7.5
2019-03-22T08:11:45.553Z,7.9
2019-03-22T08:16:45.556Z,8.4
2019-03-22T08:21:45.556Z,9
2019-03-22T08:26:45.576Z,9.4
2019-03-22T08:31:45.605Z,9.8
2019-03-22T08:36:45.514Z,10
2019-03-22T08:41:45.578Z,10.3
2019-03-22T08:46:45.561Z,10.6
2019-03-22T08:51:45.540Z,10.8
2019-03-22T08:56:45.612Z,11
2019-03-22T09:01:45.584Z,11.2
2019-03-22T09:06:45.585Z,11.3
2019-03-22T09:11:45.546Z,11.5
2019-03-22T09:16:45.589Z,11.8
2019-03-22T09:21:45.575Z,12
2019-03-22T09:26:47.770Z,12.2
2019-03-22T09:31:45.601Z,12.3
2019-03-22T09:36:45.588Z,12.5
2019-03-22T09:41:45.594Z,12.8
2019-03-22T09:46:45.585Z,12.9
2019-03-22T09:51:45.612Z,13
2019-03-22T09:56:47.176Z,13.2
2019-03-22T10:01:45.645Z,13.3
2019-03-22T10:06:45.609Z,13.3
2019-03-22T10:11:45.603Z,13.4
2019-03-22T10:16:47.568Z,13.6
2019-03-22T10:21:45.619Z,13.7
2019-03-22T10:26:45.636Z,14
2019-03-22T10:31:45.618Z,14
2019-03-22T10:36:45.632Z,14.2
2019-03-22T10:41:45.669Z,14.4
2019-03-22T10:46:45.574Z,14.6
2019-03-22T10:51:55.957Z,14.8
2019-03-22T10:56:45.783Z,14.9
2019-03-22T11:01:52.084Z,15.1
2019-03-22T11:06:45.862Z,15.3
2019-03-22T11:11:46.105Z,15.4
2019-03-22T11:16:45.810Z,15.6
2019-03-22T11:21:45.639Z,15.9
2019-03-22T11:26:45.646Z,15.9
2019-03-22T11:31:45.645Z,16.1
2019-03-22T11:36:45.866Z,16.1
2019-03-22T11:41:45.787Z,16.3
2019-03-22T11:46:45.781Z,16.3
2019-03-22T11:51:45.854Z,16.3
2019-03-22T11:56:55.426Z,16.5
2019-03-22T12:01:55.201Z,16.4
2019-03-22T12:06:55.404Z,16.4
2019-03-22T12:11:55.211Z,16.6
2019-03-22T12:16:56.678Z,16.7
2019-03-22T12:21:55.406Z,16.7
2019-03-22T12:26:55.210Z,16.7
2019-03-22T12:31:55.222Z,17
2019-03-22T12:36:55.223Z,17
2019-03-22T12:41:55.423Z,17.2
2019-03-22T12:46:55.308Z,17.2
2019-03-22T12:51:55.221Z,17.2
2019-03-22T12:56:55.434Z,17.3
2019-03-22T13:01:55.481Z,17.3
2019-03-22T13:06:55.256Z,17.4
2019-03-22T13:11:55.225Z,17.1
2019-03-22T13:16:55.239Z,17
2019-03-22T13:21:55.225Z,17.2
2019-03-22T13:26:55.245Z,17.2
2019-03-22T13:31:55.230Z,17.1
2019-03-22T13:36:55.234Z,17.2
2019-03-22T13:41:55.259Z,17.2
2019-03-22T13:46:55.241Z,17.3
2019-03-22T13:51:55.250Z,17.3
2019-03-22T13:56:55.244Z,17.3
2019-03-22T14:01:55.519Z,17.3
2019-03-22T14:06:55.260Z,17.3
2019-03-22T14:11:55.250Z,17.4
2019-03-22T14:16:55.264Z,17.4
2019-03-22T14:21:55.284Z,17.4
2019-03-22T14:26:55.280Z,17.4
2019-03-22T14:31:55.284Z,17.5
2019-03-22T14:36:55.284Z,17.5
2019-03-22T14:41:55.289Z,17.5
2019-03-22T14:46:55.284Z,17.4
2019-03-22T14:51:55.265Z,17.3
2019-03-22T14:56:55.306Z,17.4
2019-03-22T15:01:55.318Z,17.4
2019-03-22T15:06:55.255Z,17.2
2019-03-22T15:11:55.299Z,17.2
2019-03-22T15:16:55.300Z,17.2
2019-03-22T15:21:55.300Z,17.1
2019-03-22T15:26:55.299Z,17
2019-03-22T15:31:55.319Z,16.9
2019-03-22T15:36:55.433Z,16.9
2019-03-22T15:41:55.319Z,16.8
2019-03-22T15:46:55.329Z,16.7
2019-03-22T15:51:55.321Z,16.6
2019-03-22T15:56:55.326Z,16.5
2019-03-22T16:01:55.321Z,16.5
2019-03-22T16:06:55.344Z,16.4
2019-03-22T16:11:55.340Z,16.3
2019-03-22T16:16:55.340Z,16.2
2019-03-22T16:21:55.346Z,16
2019-03-22T16:26:55.298Z,15.9
2019-03-22T16:31:55.331Z,15.8
2019-03-22T16:36:55.326Z,15.7
2019-03-22T16:41:55.359Z,15.5
2019-03-22T16:46:55.339Z,15.4
2019-03-22T16:51:55.366Z,15.2
2019-03-22T16:56:55.346Z,15
2019-03-22T17:01:55.358Z,14.9
2019-03-22T17:06:55.425Z,14.8
2019-03-22T17:11:55.311Z,14.6
2019-03-22T17:16:55.361Z,14.5
2019-03-22T17:21:55.392Z,14.4
2019-03-22T17:26:55.366Z,14.2
2019-03-22T17:31:55.355Z,14.1
2019-03-22T17:36:55.394Z,13.9
2019-03-22T17:41:55.379Z,13.8
2019-03-22T17:46:55.389Z,13.7
2019-03-22T17:51:55.379Z,13.6
2019-03-22T17:56:55.401Z,13.5
2019-03-22T18:01:55.591Z,13.4
2019-03-22T18:06:55.386Z,13.3
2019-03-22T18:11:55.372Z,13.3
2019-03-22T18:16:55.377Z,13.2
2019-03-22T18:21:55.431Z,13.2
2019-03-22T18:26:55.413Z,13.1
2019-03-22T18:31:55.367Z,13
2019-03-22T18:36:55.416Z,13
2019-03-22T18:41:55.411Z,13
2019-03-22T18:46:55.412Z,12.9
2019-03-22T18:51:55.397Z,12.9
2019-03-22T18:56:55.426Z,12.8
2019-03-22T19:01:55.428Z,12.6
2019-03-22T19:06:55.423Z,12.6
2019-03-22T19:11:55.432Z,12.5
2019-03-22T19:16:55.421Z,12.4
2019-03-22T19:21:55.425Z,12.3
2019-03-22T19:26:55.582Z,12.2
2019-03-22T19:31:55.460Z,12.1
2019-03-22T19:36:55.517Z,11.9
2019-03-22T19:41:55.445Z,11.9
2019-03-22T19:46:55.455Z,11.7
2019-03-22T19:51:55.425Z,11.7
2019-03-22T19:56:55.465Z,11.6
2019-03-22T20:01:55.513Z,11.5
2019-03-22T20:06:55.556Z,11.4
2019-03-22T20:11:55.748Z,11.2
2019-03-22T20:16:55.463Z,11.1
2019-03-22T20:21:55.496Z,10.9
2019-03-22T20:26:55.794Z,10.5
2019-03-22T20:31:55.480Z,10.4
2019-03-22T20:36:55.514Z,10.1
2019-03-22T20:41:55.748Z,10
2019-03-22T20:46:55.506Z,9.7
2019-03-22T20:51:55.486Z,9.5
2019-03-22T20:56:55.582Z,9.3
2019-03-22T21:01:55.539Z,9.1
2019-03-22T21:06:55.497Z,8.9
2019-03-22T21:11:55.532Z,8.7
2019-03-22T21:16:55.638Z,8.6
2019-03-22T21:21:55.520Z,8.5
2019-03-22T21:26:55.463Z,8.3
2019-03-22T21:31:55.480Z,8.2
2019-03-22T21:36:55.504Z,8.1
2019-03-22T21:41:55.510Z,8
2019-03-22T21:46:55.535Z,8
2019-03-22T21:51:55.518Z,7.9
2019-03-22T21:56:55.493Z,7.8
2019-03-22T22:01:55.709Z,7.7
2019-03-22T22:06:55.507Z,7.6
2019-03-22T22:11:55.676Z,7.5
2019-03-22T22:16:55.723Z,7.4
2019-03-22T22:21:55.635Z,7.3
2019-03-22T22:26:55.727Z,7.2
2019-03-22T22:31:55.524Z,7.1
2019-03-22T22:36:55.524Z,7
2019-03-22T22:41:55.524Z,6.9
2019-03-22T22:46:55.573Z,6.8
2019-03-22T22:51:55.534Z,6.7
2019-03-22T22:56:55.533Z,6.7
2019-03-22T23:01:55.523Z,6.6
2019-03-22T23:06:55.541Z,6.5
2019-03-22T23:11:55.560Z,6.5
2019-03-22T23:16:55.785Z,6.4
2019-03-22T23:21:55.559Z,6.3
2019-03-22T23:26:55.567Z,6.2
2019-03-22T23:31:55.538Z,6.1
2019-03-22T23:36:55.559Z,6.1
2019-03-22T23:41:55.534Z,5.9
2019-03-22T23:46:55.563Z,5.9
2019-03-22T23:51:55.545Z,5.8
2019-03-22T23:56:55.790Z,5.7
